Time;durP1;ratioP1;P1;durP2;ratioP2;P2;SDS_P1;SDS_P2;PMS_P1;PMS_P2;Temp;Humidity;BMP_temperature;BMP_pressure;BME280_temperature;BME280_humidity;BME280_pressure;Samples;Min_cycle;Max_cycle;Signal;HPM_P1;HPM_P2
2021/12/03 00:01:15;;;;;;;;;;;1.30;99.90;;;;;;4826176;29;20015;-88
2021/12/03 00:03:40;;;;;;;;;;;0.60;99.90;;;;;;4826993;29;19973;-88
2021/12/03 00:06:06;;;;;;;;;;;1.40;99.90;;;;;;4829450;29;19929;-86
2021/12/03 00:08:32;;;;;;;;;;;0.60;99.90;;;;;;4826121;29;19968;-87
2021/12/03 00:10:59;;;;;;;;;;;0.60;99.90;;;;;;4826169;29;19925;-88
2021/12/03 00:13:26;;;;;;;;;;;1.00;99.90;;;;;;4825857;29;19948;-88
2021/12/03 00:15:52;;;;;;;;;;;0.60;99.90;;;;;;4826039;29;19949;-86
2021/12/03 00:18:18;;;;;;;;;;;0.60;99.90;;;;;;4826689;29;19931;-87
2021/12/03 00:20:44;;;;;;;;;;;1.20;99.90;;;;;;4825852;29;20309;-85
2021/12/03 00:23:09;;;;;;;;;;;1.20;99.90;;;;;;4825944;29;19932;-86
2021/12/03 00:25:35;;;;;;;;;;;0.70;99.90;;;;;;4824804;29;19924;-87
2021/12/03 00:28:01;;;;;;;;;;;1.80;99.90;;;;;;4826051;29;19932;-89
2021/12/03 00:30:27;;;;;;;;;;;1.40;99.90;;;;;;4825650;29;19924;-86
2021/12/03 00:32:53;;;;;;;;;;;0.90;99.90;;;;;;4826615;29;19935;-87
2021/12/03 00:35:18;;;;;;;;;;;1.80;99.90;;;;;;4825519;29;19947;-86
2021/12/03 00:37:45;;;;;;;;;;;1.70;99.90;;;;;;4825496;29;19932;-87
2021/12/03 00:40:12;;;;;;;;;;;1.60;99.90;;;;;;4825513;29;20383;-85
2021/12/03 00:42:38;;;;;;;;;;;1.10;99.90;;;;;;4828623;29;19932;-87
2021/12/03 00:45:04;;;;;;;;;;;1.60;99.90;;;;;;4825886;29;19928;-84
2021/12/03 00:47:30;;;;;;;;;;;1.00;99.90;;;;;;4843359;29;19920;-84
2021/12/03 00:49:56;;;;;;;;;;;1.70;99.90;;;;;;4843438;29;19935;-83
2021/12/03 00:52:21;;;;;;;;;;;1.10;99.90;;;;;;4843744;29;19924;-86
2021/12/03 00:54:49;;;;;;;;;;;1.50;99.90;;;;;;4842080;29;20310;-86
2021/12/03 00:57:15;;;;;;;;;;;0.80;99.90;;;;;;4843742;29;19924;-85
2021/12/03 00:59:41;;;;;;;;;;;1.00;99.90;;;;;;4843502;29;19924;-86
2021/12/03 01:02:06;;;;;;;;;;;1.40;99.90;;;;;;4843506;29;20305;-85
2021/12/03 01:04:32;;;;;;;;;;;1.50;99.90;;;;;;4835198;29;19925;-82
2021/12/03 01:06:58;;;;;;;;;;;1.40;99.90;;;;;;4825279;29;19925;-88
2021/12/03 01:09:23;;;;;;;;;;;1.10;99.90;;;;;;4825322;29;20336;-88
2021/12/03 01:11:49;;;;;;;;;;;1.90;99.90;;;;;;4825134;29;20413;-87
2021/12/03 01:14:15;;;;;;;;;;;0.30;99.90;;;;;;4838053;29;19973;-85
2021/12/03 01:16:40;;;;;;;;;;;2.20;99.90;;;;;;4825126;29;19925;-86
2021/12/03 01:19:07;;;;;;;;;;;1.20;99.90;;;;;;4824949;29;19921;-87
2021/12/03 01:21:32;;;;;;;;;;;1.20;99.90;;;;;;4825017;29;19924;-85
2021/12/03 01:23:58;;;;;;;;;;;2.00;99.90;;;;;;4825277;29;19978;-88
2021/12/03 01:26:24;;;;;;;;;;;2.40;99.90;;;;;;4836317;29;19931;-88
2021/12/03 01:28:50;;;;;;;;;;;1.50;99.90;;;;;;4843184;29;20014;-88
2021/12/03 01:31:16;;;;;;;;;;;1.30;99.90;;;;;;4842976;29;20338;-88
2021/12/03 01:33:44;;;;;;;;;;;2.50;99.90;;;;;;4842804;29;19947;-88
2021/12/03 01:36:09;;;;;;;;;;;2.60;99.90;;;;;;4837450;29;19935;-85
2021/12/03 01:38:35;;;;;;;;;;;1.50;99.90;;;;;;4824848;29;20294;-87
2021/12/03 01:41:01;;;;;;;;;;;1.50;99.90;;;;;;4825770;29;19948;-88
2021/12/03 01:43:27;;;;;;;;;;;2.80;99.90;;;;;;4824740;29;19928;-88
2021/12/03 01:45:54;;;;;;;;;;;1.40;99.90;;;;;;4824592;29;19929;-87
2021/12/03 01:48:20;;;;;;;;;;;1.50;99.90;;;;;;4808983;29;19921;-88
2021/12/03 01:50:45;;;;;;;;;;;1.40;99.90;;;;;;4824389;29;20331;-87
2021/12/03 01:53:13;;;;;;;;;;;2.40;99.90;;;;;;4824570;29;20011;-87
2021/12/03 01:55:39;;;;;;;;;;;1.30;99.90;;;;;;4824730;29;19924;-87
2021/12/03 01:58:04;;;;;;;;;;;2.40;99.90;;;;;;4833908;29;19929;-87
2021/12/03 02:00:32;;;;;;;;;;;1.70;99.90;;;;;;4826355;29;20001;-85
2021/12/03 02:02:58;;;;;;;;;;;1.30;99.90;;;;;;4826329;29;19924;-88
2021/12/03 02:05:24;;;;;;;;;;;1.90;99.90;;;;;;4842550;29;20011;-88
2021/12/03 02:07:49;;;;;;;;;;;1.20;99.90;;;;;;4822391;29;20011;-89
2021/12/03 02:10:16;;;;;;;;;;;1.20;99.90;;;;;;4837592;29;19924;-87
2021/12/03 02:12:42;;;;;;;;;;;1.20;99.90;;;;;;4842372;29;19972;-89
2021/12/03 02:15:08;;;;;;;;;;;1.30;99.90;;;;;;4842547;29;19928;-87
2021/12/03 02:17:34;;;;;;;;;;;1.40;99.90;;;;;;4842211;29;19928;-86
2021/12/03 02:19:59;;;;;;;;;;;1.80;99.90;;;;;;4840771;29;20297;-86
2021/12/03 02:22:25;;;;;;;;;;;1.30;99.90;;;;;;4838971;29;20329;-87
2021/12/03 02:24:50;;;;;;;;;;;2.20;99.90;;;;;;4842476;29;19931;-87
2021/12/03 02:27:16;;;;;;;;;;;1.40;99.90;;;;;;4825951;29;19924;-86
2021/12/03 02:29:41;;;;;;;;;;;1.50;99.90;;;;;;4833740;29;19932;-87
2021/12/03 02:32:07;;;;;;;;;;;1.60;99.90;;;;;;4825110;29;19975;-87
2021/12/03 02:34:34;;;;;;;;;;;1.30;99.90;;;;;;4824113;29;20310;-85
2021/12/03 02:36:59;;;;;;;;;;;1.30;99.90;;;;;;4823909;29;20354;-86
2021/12/03 02:39:25;;;;;;;;;;;1.30;99.90;;;;;;4824262;29;19980;-87
2021/12/03 02:41:50;;;;;;;;;;;1.30;99.90;;;;;;4805814;29;19988;-87
2021/12/03 02:44:16;;;;;;;;;;;1.30;99.90;;;;;;4821352;29;19981;-86
2021/12/03 02:46:41;;;;;;;;;;;1.30;99.90;;;;;;4823867;29;19974;-87
2021/12/03 02:49:09;;;;;;;;;;;1.20;99.90;;;;;;4810435;29;19933;-85
2021/12/03 02:51:34;;;;;;;;;;;1.10;99.90;;;;;;4822447;29;19949;-87
2021/12/03 02:54:01;;;;;;;;;;;1.60;99.90;;;;;;4827564;29;19924;-86
2021/12/03 02:56:26;;;;;;;;;;;1.10;99.90;;;;;;4845894;29;19924;-88
2021/12/03 02:58:52;;;;;;;;;;;1.10;99.90;;;;;;4845615;29;19988;-86
2021/12/03 03:01:17;;;;;;;;;;;1.10;99.90;;;;;;4840301;29;19925;-87
2021/12/03 03:03:43;;;;;;;;;;;1.00;99.90;;;;;;4827343;29;19929;-83
2021/12/03 03:06:09;;;;;;;;;;;1.00;99.90;;;;;;4827733;29;19939;-86
2021/12/03 03:08:34;;;;;;;;;;;1.00;99.90;;;;;;4826890;29;20028;-87
2021/12/03 03:11:03;;;;;;;;;;;1.10;99.90;;;;;;4810994;29;19929;-85
2021/12/03 03:13:28;;;;;;;;;;;1.10;99.90;;;;;;4796527;29;19956;-85
2021/12/03 03:15:54;;;;;;;;;;;2.60;99.90;;;;;;4827985;29;20025;-87
2021/12/03 03:18:24;;;;;;;;;;;1.10;99.90;;;;;;4795523;29;19997;-87
2021/12/03 03:20:50;;;;;;;;;;;1.10;99.90;;;;;;4826904;29;19925;-88
2021/12/03 03:23:16;;;;;;;;;;;1.50;99.90;;;;;;4827494;29;19924;-86
2021/12/03 03:25:43;;;;;;;;;;;1.20;99.90;;;;;;4827856;29;19929;-88
2021/12/03 03:28:09;;;;;;;;;;;1.60;99.90;;;;;;4810588;29;19935;-87
2021/12/03 03:30:35;;;;;;;;;;;2.70;99.90;;;;;;4826692;29;19973;-86
2021/12/03 03:33:02;;;;;;;;;;;1.30;99.90;;;;;;4829282;29;19936;-82
2021/12/03 03:35:28;;;;;;;;;;;2.00;99.90;;;;;;4828405;29;19925;-85
2021/12/03 03:37:54;;;;;;;;;;;1.40;99.90;;;;;;4843098;29;19936;-87
2021/12/03 03:40:20;;;;;;;;;;;2.30;99.90;;;;;;4845050;29;20027;-83
2021/12/03 03:42:45;;;;;;;;;;;1.40;99.90;;;;;;4845015;29;19971;-86
2021/12/03 03:45:13;;;;;;;;;;;2.20;99.90;;;;;;4843447;29;19931;-88
2021/12/03 03:47:39;;;;;;;;;;;2.50;99.90;;;;;;4842990;29;19924;-85
2021/12/03 03:50:05;;;;;;;;;;;1.90;99.90;;;;;;4844731;29;19925;-84
2021/12/03 03:52:31;;;;;;;;;;;1.40;99.90;;;;;;4827233;29;19924;-86
2021/12/03 03:54:57;;;;;;;;;;;1.40;99.90;;;;;;4830125;29;19928;-83
2021/12/03 03:57:22;;;;;;;;;;;1.50;99.90;;;;;;4827456;29;20185;-85
2021/12/03 03:59:48;;;;;;;;;;;2.90;99.90;;;;;;4825999;29;20336;-89
2021/12/03 04:02:14;;;;;;;;;;;2.40;99.90;;;;;;4826426;29;19975;-86
2021/12/03 04:04:39;;;;;;;;;;;1.90;99.90;;;;;;4810211;29;20283;-87
2021/12/03 04:07:05;;;;;;;;;;;1.80;99.90;;;;;;4844369;29;19931;-90
2021/12/03 04:09:31;;;;;;;;;;;2.70;99.90;;;;;;4842904;29;19931;-88
2021/12/03 04:11:57;;;;;;;;;;;2.70;99.90;;;;;;4827922;29;19929;-89
2021/12/03 04:14:22;;;;;;;;;;;1.60;99.90;;;;;;4827909;29;20373;-84
2021/12/03 04:16:48;;;;;;;;;;;2.50;99.90;;;;;;4842909;29;19989;-88
2021/12/03 04:19:14;;;;;;;;;;;1.90;99.90;;;;;;4826110;29;20290;-90
2021/12/03 04:21:39;;;;;;;;;;;2.50;99.90;;;;;;4844281;29;19931;-88
2021/12/03 04:24:06;;;;;;;;;;;1.70;99.90;;;;;;4835498;29;19924;-86
2021/12/03 04:26:31;;;;;;;;;;;1.80;99.90;;;;;;4814167;29;20346;-88
2021/12/03 04:28:57;;;;;;;;;;;2.80;99.90;;;;;;4843422;29;20011;-88
2021/12/03 04:31:22;;;;;;;;;;;1.30;99.90;;;;;;4843391;29;19940;-86
2021/12/03 04:40:33;;;;;;;;;;;1.70;99.90;;;;;;4826707;29;19970;-86
2021/12/03 04:42:58;;;;;;;;;;;1.70;99.90;;;;;;4825653;29;19925;-85
2021/12/03 04:45:25;;;;;;;;;;;1.70;99.90;;;;;;4825785;29;19927;-84
2021/12/03 04:47:51;;;;;;;;;;;2.60;99.90;;;;;;4830086;29;19924;-87
2021/12/03 04:50:18;;;;;;;;;;;1.70;99.90;;;;;;4842603;29;19931;-87
2021/12/03 04:52:44;;;;;;;;;;;2.00;99.90;;;;;;4843548;29;19985;-83
2021/12/03 04:55:11;;;;;;;;;;;1.70;99.90;;;;;;4843509;29;19925;-87
2021/12/03 04:57:37;;;;;;;;;;;1.70;99.90;;;;;;4827561;29;20409;-88
2021/12/03 05:00:04;;;;;;;;;;;1.70;99.90;;;;;;4842076;29;19968;-81
2021/12/03 05:02:30;;;;;;;;;;;2.70;99.90;;;;;;4825690;29;20403;-87
2021/12/03 05:05:00;;;;;;;;;;;1.70;99.90;;;;;;4841732;29;19924;-85
2021/12/03 05:09:54;;;;;;;;;;;1.80;99.90;;;;;;4843238;29;20327;-86
2021/12/03 05:12:20;;;;;;;;;;;1.80;99.90;;;;;;4841116;29;19925;-87
2021/12/03 05:14:45;;;;;;;;;;;2.40;99.90;;;;;;4843112;29;20400;-90
2021/12/03 05:17:11;;;;;;;;;;;1.80;99.90;;;;;;4810135;29;20358;-87
2021/12/03 05:19:36;;;;;;;;;;;1.90;99.90;;;;;;4808533;29;20344;-87
2021/12/03 05:22:02;;;;;;;;;;;2.30;99.90;;;;;;4825339;29;19931;-88
2021/12/03 05:24:28;;;;;;;;;;;1.80;99.90;;;;;;4825970;29;20019;-87
2021/12/03 05:26:53;;;;;;;;;;;1.80;99.90;;;;;;4834083;29;19932;-86
2021/12/03 05:29:19;;;;;;;;;;;2.70;99.90;;;;;;4842945;29;19928;-88
2021/12/03 05:31:45;;;;;;;;;;;3.10;99.90;;;;;;4843305;29;19924;-83
2021/12/03 05:34:13;;;;;;;;;;;1.90;99.90;;;;;;4841354;29;20085;-85
2021/12/03 05:36:39;;;;;;;;;;;2.10;99.90;;;;;;4824866;29;19981;-86
2021/12/03 05:39:05;;;;;;;;;;;2.00;99.90;;;;;;4843037;29;20060;-86
2021/12/03 05:41:31;;;;;;;;;;;2.00;99.90;;;;;;4842875;29;20294;-81
2021/12/03 05:43:57;;;;;;;;;;;2.20;99.90;;;;;;4841237;29;20298;-82
2021/12/03 05:46:22;;;;;;;;;;;2.20;99.90;;;;;;4842987;29;19928;-84
2021/12/03 05:48:48;;;;;;;;;;;2.20;99.90;;;;;;4828220;29;19972;-85
2021/12/03 05:51:13;;;;;;;;;;;2.00;99.90;;;;;;4808065;29;20323;-83
2021/12/03 05:53:39;;;;;;;;;;;2.00;99.90;;;;;;4824852;29;19924;-85
2021/12/03 05:56:04;;;;;;;;;;;2.00;99.90;;;;;;4825608;29;20294;-84
2021/12/03 05:58:30;;;;;;;;;;;2.00;99.90;;;;;;4830872;29;19981;-82
2021/12/03 06:00:56;;;;;;;;;;;2.00;99.90;;;;;;4842489;29;20011;-83
2021/12/03 06:03:21;;;;;;;;;;;2.00;99.90;;;;;;4842680;29;19924;-82
2021/12/03 06:05:47;;;;;;;;;;;2.70;99.90;;;;;;4824794;29;19925;-84
2021/12/03 06:08:12;;;;;;;;;;;2.00;99.90;;;;;;4841529;29;19928;-81
2021/12/03 06:10:38;;;;;;;;;;;2.70;99.90;;;;;;4808100;29;20012;-85
2021/12/03 06:13:04;;;;;;;;;;;2.40;99.90;;;;;;4839526;29;20271;-85
2021/12/03 06:15:29;;;;;;;;;;;1.90;99.90;;;;;;4825171;29;19929;-81
2021/12/03 06:17:55;;;;;;;;;;;1.90;99.90;;;;;;4842016;29;19927;-90
2021/12/03 06:20:21;;;;;;;;;;;1.90;99.90;;;;;;4830825;29;19932;-89
2021/12/03 06:22:47;;;;;;;;;;;3.00;99.90;;;;;;4825875;29;19924;-89
2021/12/03 06:25:13;;;;;;;;;;;1.90;99.90;;;;;;4827928;29;19992;-89
2021/12/03 06:27:39;;;;;;;;;;;3.00;99.90;;;;;;4828811;29;19932;-89
2021/12/03 06:30:10;;;;;;;;;;;2.50;99.90;;;;;;4831627;29;19954;-88
2021/12/03 06:32:36;;;;;;;;;;;1.90;99.90;;;;;;4846227;29;19931;-89
2021/12/03 06:35:02;;;;;;;;;;;2.90;99.90;;;;;;4814264;29;19920;-89
2021/12/03 06:37:27;;;;;;;;;;;1.90;99.90;;;;;;4844258;29;19934;-88
2021/12/03 06:39:53;;;;;;;;;;;2.30;99.90;;;;;;4846176;29;19981;-87
2021/12/03 06:42:18;;;;;;;;;;;1.10;99.90;;;;;;4829127;29;19927;-88
2021/12/03 06:44:44;;;;;;;;;;;1.90;99.90;;;;;;4827674;29;20012;-88
2021/12/03 06:47:09;;;;;;;;;;;3.10;99.90;;;;;;4828774;29;19954;-90
2021/12/03 06:49:35;;;;;;;;;;;2.00;99.90;;;;;;4828539;29;19976;-86
2021/12/03 06:52:04;;;;;;;;;;;2.20;99.90;;;;;;4811323;29;19931;-87
2021/12/03 06:54:32;;;;;;;;;;;2.00;99.90;;;;;;4827714;29;19924;-87
2021/12/03 06:56:58;;;;;;;;;;;2.10;99.90;;;;;;4827340;29;20402;-88
2021/12/03 06:59:24;;;;;;;;;;;2.10;99.90;;;;;;4822176;29;20285;-88
2021/12/03 07:01:50;;;;;;;;;;;2.10;99.90;;;;;;4828849;29;20015;-87
2021/12/03 07:04:16;;;;;;;;;;;2.50;99.90;;;;;;4845446;29;19925;-85
2021/12/03 07:06:42;;;;;;;;;;;2.60;99.90;;;;;;4845374;29;19924;-88
2021/12/03 07:09:08;;;;;;;;;;;2.10;99.90;;;;;;4839750;29;20458;-86
2021/12/03 07:11:34;;;;;;;;;;;2.10;99.90;;;;;;4826868;29;19991;-88
2021/12/03 07:14:00;;;;;;;;;;;3.00;99.90;;;;;;4827718;29;19924;-86
2021/12/03 07:16:25;;;;;;;;;;;2.20;99.90;;;;;;4826807;29;19973;-89
2021/12/03 07:18:51;;;;;;;;;;;2.70;99.90;;;;;;4826810;29;19977;-86
2021/12/03 07:21:17;;;;;;;;;;;2.20;99.90;;;;;;4839117;29;20011;-87
2021/12/03 07:23:43;;;;;;;;;;;2.20;99.90;;;;;;4828616;29;19936;-86
2021/12/03 07:26:08;;;;;;;;;;;2.20;99.90;;;;;;4845144;29;19927;-87
2021/12/03 07:28:34;;;;;;;;;;;3.30;99.90;;;;;;4845118;29;19963;-85
2021/12/03 07:31:00;;;;;;;;;;;3.30;99.90;;;;;;4834017;29;19928;-86
2021/12/03 07:33:28;;;;;;;;;;;2.30;99.90;;;;;;4810549;29;20317;-88
2021/12/03 07:35:53;;;;;;;;;;;2.30;99.90;;;;;;4844704;29;19990;-87
2021/12/03 07:38:19;;;;;;;;;;;2.40;99.90;;;;;;4843492;29;19960;-86
2021/12/03 07:40:45;;;;;;;;;;;3.10;99.90;;;;;;4840796;29;19925;-88
2021/12/03 07:43:11;;;;;;;;;;;2.40;99.90;;;;;;4826489;29;20344;-87
2021/12/03 07:45:37;;;;;;;;;;;2.50;99.90;;;;;;4826492;29;19928;-87
2021/12/03 07:48:03;;;;;;;;;;;2.50;99.90;;;;;;4826567;29;19929;-87
2021/12/03 07:50:29;;;;;;;;;;;2.50;99.90;;;;;;4843013;29;19924;-88
2021/12/03 07:52:54;;;;;;;;;;;2.50;99.90;;;;;;4812811;29;20008;-88
2021/12/03 07:55:20;;;;;;;;;;;2.50;99.90;;;;;;4826406;29;20382;-87
2021/12/03 07:57:46;;;;;;;;;;;3.40;99.90;;;;;;4810298;29;20327;-89
2021/12/03 08:00:11;;;;;;;;;;;2.50;99.90;;;;;;4826136;29;19983;-86
2021/12/03 08:02:37;;;;;;;;;;;2.50;99.90;;;;;;4832061;29;20016;-84
2021/12/03 08:05:03;;;;;;;;;;;3.60;99.90;;;;;;4844688;29;19935;-82
2021/12/03 08:07:29;;;;;;;;;;;2.60;99.90;;;;;;4844484;29;19932;-84
2021/12/03 08:09:54;;;;;;;;;;;2.70;99.90;;;;;;4844425;29;19924;-86
2021/12/03 08:12:20;;;;;;;;;;;2.70;99.90;;;;;;4843130;29;20290;-81
2021/12/03 08:14:47;;;;;;;;;;;2.70;99.90;;;;;;4809932;29;19925;-85
2021/12/03 08:17:12;;;;;;;;;;;3.20;99.90;;;;;;4825942;29;20406;-85
2021/12/03 08:19:38;;;;;;;;;;;2.80;99.90;;;;;;4834313;29;19924;-83
2021/12/03 08:22:03;;;;;;;;;;;2.70;99.90;;;;;;4839021;29;19929;-81
2021/12/03 08:24:29;;;;;;;;;;;2.80;99.90;;;;;;4837549;29;19925;-85
2021/12/03 08:26:55;;;;;;;;;;;2.80;99.90;;;;;;4844366;29;19931;-83
2021/12/03 08:29:20;;;;;;;;;;;3.50;99.90;;;;;;4827869;29;20259;-88
2021/12/03 08:31:46;;;;;;;;;;;3.20;99.90;;;;;;4843525;29;19932;-84
2021/12/03 08:34:11;;;;;;;;;;;2.90;99.90;;;;;;4823426;29;19974;-84
2021/12/03 08:36:37;;;;;;;;;;;2.80;99.90;;;;;;4844042;29;19924;-86
2021/12/03 08:39:03;;;;;;;;;;;3.50;99.90;;;;;;4844332;29;20373;-88
2021/12/03 08:41:29;;;;;;;;;;;3.60;99.90;;;;;;4844227;29;20057;-86
2021/12/03 08:43:55;;;;;;;;;;;2.90;99.90;;;;;;4842491;29;20403;-88
2021/12/03 08:49:04;;;;;;;;;;;3.00;99.90;;;;;;4842300;29;19924;-89
2021/12/03 08:51:50;;;;;;;;;;;3.70;99.90;;;;;;4832680;29;19974;-89
2021/12/03 08:57:00;;;;;;;;;;;3.30;99.90;;;;;;4825572;29;19924;-88
2021/12/03 08:59:26;;;;;;;;;;;3.10;99.90;;;;;;4825279;29;19920;-88
2021/12/03 09:01:51;;;;;;;;;;;3.20;99.90;;;;;;4825563;29;19925;-85
2021/12/03 09:04:17;;;;;;;;;;;4.30;99.90;;;;;;4826215;29;20439;-85
2021/12/03 09:06:43;;;;;;;;;;;2.40;99.90;;;;;;4825040;29;19925;-84
2021/12/03 09:09:08;;;;;;;;;;;3.90;99.90;;;;;;4825242;29;19925;-84
2021/12/03 09:11:35;;;;;;;;;;;3.20;99.90;;;;;;4825096;29;20298;-83
2021/12/03 09:14:04;;;;;;;;;;;3.20;99.90;;;;;;4824875;29;20029;-84
2021/12/03 09:16:29;;;;;;;;;;;3.90;99.90;;;;;;4826284;29;19974;-83
2021/12/03 09:18:56;;;;;;;;;;;4.10;99.90;;;;;;4809116;29;20260;-81
2021/12/03 09:21:33;;;;;;;;;;;3.90;99.90;;;;;;4841739;29;20301;-82
2021/12/03 09:24:13;;;;;;;;;;;4.70;99.90;;;;;;4841767;29;19944;-85
2021/12/03 09:26:41;;;;;;;;;;;4.40;99.90;;;;;;4825783;29;20005;-81
2021/12/03 09:29:09;;;;;;;;;;;3.30;99.90;;;;;;4808422;29;19974;-82
2021/12/03 09:31:37;;;;;;;;;;;3.40;99.90;;;;;;4824893;29;20298;-83
2021/12/03 09:34:10;;;;;;;;;;;4.10;99.90;;;;;;4825871;29;19924;-83
2021/12/03 09:36:41;;;;;;;;;;;3.40;99.90;;;;;;4825581;29;19932;-83
2021/12/03 09:39:09;;;;;;;;;;;3.80;99.90;;;;;;4824660;29;20023;-84
2021/12/03 09:41:35;;;;;;;;;;;3.50;99.90;;;;;;4808606;29;20248;-82
2021/12/03 09:44:01;;;;;;;;;;;4.00;99.90;;;;;;4825145;29;19982;-85
2021/12/03 09:46:27;;;;;;;;;;;4.60;99.90;;;;;;4825728;29;20377;-81
2021/12/03 09:51:33;;;;;;;;;;;3.70;99.90;;;;;;4806532;29;20024;-83
2021/12/03 09:54:19;;;;;;;;;;;3.60;99.90;;;;;;4806336;29;19932;-83
2021/12/03 09:56:45;;;;;;;;;;;4.20;99.90;;;;;;4789917;29;20389;-81
2021/12/03 10:02:08;;;;;;;;;;;3.70;99.90;;;;;;4824498;29;20298;-83
2021/12/03 10:05:10;;;;;;;;;;;3.80;99.90;;;;;;4824460;29;19928;-84
2021/12/03 10:43:20;;;;;;;;;;;4.00;99.90;;;;;;4735813;30;19926;-81
2021/12/03 10:46:08;;;;;;;;;;;5.10;99.90;;;;;;4735733;30;20368;-83
2021/12/03 10:48:46;;;;;;;;;;;4.00;99.90;;;;;;4750215;30;19926;-85
2021/12/03 10:51:35;;;;;;;;;;;4.00;99.90;;;;;;4734796;30;19926;-85
2021/12/03 10:59:51;;;;;;;;;;;4.10;99.90;;;;;;4750010;30;19926;-85
2021/12/03 11:08:24;;;;;;;;;;;4.10;99.90;;;;;;4758802;29;20382;-84
2021/12/03 11:25:28;;;;;;;;;;;4.20;99.90;;;;;;4826854;29;20024;-85
2021/12/03 12:35:27;;;;;;;;;;;4.10;99.90;;;;;;4761289;30;19987;-86
2021/12/03 12:59:55;;;;;;;;;;;4.00;99.90;;;;;;4832592;29;19925;-88
2021/12/03 13:08:02;;;;;;;;;;;4.20;99.90;;;;;;4825002;29;19973;-85
2021/12/03 13:56:36;;;;;;;;;;;5.00;99.90;;;;;;4840930;29;20010;-88
2021/12/03 14:34:28;;;;;;;;;;;5.30;99.90;;;;;;4732111;30;19927;-90
2021/12/03 14:36:20;;;;;;;;;;;3.90;99.90;;;;;;4732163;30;20021;-89
2021/12/03 14:46:40;;;;;;;;;;;4.40;99.90;;;;;;4701107;30;19931;-85
2021/12/03 14:54:49;;;;;;;;;;;4.40;99.90;;;;;;4683065;30;19927;-87
2021/12/03 15:05:56;;;;;;;;;;;4.40;99.90;;;;;;4666375;30;19969;-88
2021/12/03 15:25:11;;;;;;;;;;;5.60;99.90;;;;;;4808779;29;19958;-83
2021/12/03 15:27:57;;;;;;;;;;;4.40;99.90;;;;;;4805678;29;20298;-87
2021/12/03 15:30:48;;;;;;;;;;;5.50;99.90;;;;;;4793464;29;20317;-87
2021/12/03 15:35:56;;;;;;;;;;;5.00;99.90;;;;;;4808832;29;19925;-82
2021/12/03 15:55:11;;;;;;;;;;;5.10;99.90;;;;;;4755191;30;20012;-87
2021/12/03 16:03:37;;;;;;;;;;;4.20;99.90;;;;;;4753893;30;20340;-89
2021/12/03 16:08:52;;;;;;;;;;;4.70;99.90;;;;;;4752204;30;19926;-88
2021/12/03 16:17:13;;;;;;;;;;;4.30;99.90;;;;;;4723754;30;19958;-86
2021/12/03 16:20:04;;;;;;;;;;;4.20;99.90;;;;;;4703824;30;20420;-89
2021/12/03 16:22:59;;;;;;;;;;;3.80;99.90;;;;;;4702187;30;19926;-88
2021/12/03 16:25:39;;;;;;;;;;;5.60;99.90;;;;;;4715685;30;19927;-85
2021/12/03 16:52:05;;;;;;;;;;;5.20;99.90;;;;;;4723423;30;19926;-85
2021/12/03 16:54:40;;;;;;;;;;;4.30;99.90;;;;;;4719954;30;19934;-86
2021/12/03 16:57:07;;;;;;;;;;;4.30;99.90;;;;;;4733265;30;19923;-84
2021/12/03 16:59:33;;;;;;;;;;;3.20;99.90;;;;;;4733893;30;19971;-82
2021/12/03 17:02:08;;;;;;;;;;;3.00;99.90;;;;;;4704957;30;20156;-83
2021/12/03 17:10:04;;;;;;;;;;;4.30;99.90;;;;;;4751040;30;19926;-87
2021/12/03 17:47:55;;;;;;;;;;;4.40;99.90;;;;;;4772304;30;19933;-84
2021/12/03 17:56:04;;;;;;;;;;;5.50;99.90;;;;;;4753104;30;19933;-86
2021/12/03 17:58:36;;;;;;;;;;;4.40;99.90;;;;;;4768084;30;19934;-87
2021/12/03 18:03:34;;;;;;;;;;;5.30;99.90;;;;;;4768017;30;19925;-85
2021/12/03 18:17:09;;;;;;;;;;;4.50;99.90;;;;;;4806047;29;20394;-84
2021/12/03 18:49:46;;;;;;;;;;;4.50;99.90;;;;;;4805669;29;20358;-84
2021/12/03 18:52:26;;;;;;;;;;;5.20;99.90;;;;;;4774171;29;19931;-86
2021/12/03 18:55:00;;;;;;;;;;;4.50;99.90;;;;;;4789734;29;20283;-84
2021/12/03 18:57:29;;;;;;;;;;;4.50;99.90;;;;;;4789220;29;19929;-85
2021/12/03 19:00:04;;;;;;;;;;;5.50;99.90;;;;;;4774516;29;19983;-84
2021/12/03 19:02:30;;;;;;;;;;;5.80;99.90;;;;;;4774165;29;19929;-84
2021/12/03 19:05:08;;;;;;;;;;;5.70;99.90;;;;;;4805984;29;19922;-84
2021/12/03 19:10:22;;;;;;;;;;;4.50;99.90;;;;;;4788832;29;19985;-85
2021/12/03 19:12:56;;;;;;;;;;;4.60;99.90;;;;;;4774422;29;19933;-87
2021/12/03 19:15:22;;;;;;;;;;;5.80;99.90;;;;;;4805752;29;19929;-87
2021/12/03 19:17:48;;;;;;;;;;;3.40;99.90;;;;;;4789540;29;19936;-87
2021/12/03 19:20:16;;;;;;;;;;;3.90;99.90;;;;;;4805436;29;19972;-87
2021/12/03 19:22:42;;;;;;;;;;;4.60;99.90;;;;;;4805181;29;19932;-86
2021/12/03 19:25:08;;;;;;;;;;;4.70;99.90;;;;;;4805315;29;19925;-85
2021/12/03 19:27:38;;;;;;;;;;;5.50;99.90;;;;;;4789154;29;19925;-86
2021/12/03 19:30:04;;;;;;;;;;;4.70;99.90;;;;;;4774340;29;20016;-86
2021/12/03 19:32:31;;;;;;;;;;;4.60;99.90;;;;;;4808926;29;19930;-86
2021/12/03 19:34:57;;;;;;;;;;;5.50;99.90;;;;;;4792633;29;19948;-86
2021/12/03 19:37:30;;;;;;;;;;;4.60;99.90;;;;;;4792394;29;20019;-86
2021/12/03 19:39:58;;;;;;;;;;;5.80;99.90;;;;;;4792358;29;20294;-89
2021/12/03 19:42:28;;;;;;;;;;;4.60;99.90;;;;;;4808633;29;19925;-87
2021/12/03 19:45:01;;;;;;;;;;;4.00;99.90;;;;;;4808249;29;19960;-89
2021/12/03 19:53:01;;;;;;;;;;;5.20;99.90;;;;;;4734776;30;19934;-87
2021/12/03 19:55:31;;;;;;;;;;;4.70;99.90;;;;;;4720406;30;20017;-88
2021/12/03 19:57:57;;;;;;;;;;;5.60;99.90;;;;;;4737653;30;19926;-87
2021/12/03 20:00:24;;;;;;;;;;;5.30;99.90;;;;;;4737808;30;19934;-87
2021/12/03 20:02:50;;;;;;;;;;;4.80;99.90;;;;;;4721216;30;20443;-86
2021/12/03 20:05:15;;;;;;;;;;;4.40;99.90;;;;;;4734966;30;20016;-87
2021/12/03 20:07:41;;;;;;;;;;;5.30;99.90;;;;;;4721068;30;19926;-85
2021/12/03 20:10:12;;;;;;;;;;;5.20;99.90;;;;;;4720037;30;20297;-86
2021/12/03 20:12:38;;;;;;;;;;;4.30;99.90;;;;;;4725267;30;19933;-85
2021/12/03 20:15:07;;;;;;;;;;;4.70;99.90;;;;;;4752332;30;19926;-87
2021/12/03 20:17:47;;;;;;;;;;;4.70;99.90;;;;;;4738406;30;19926;-84
2021/12/03 20:20:16;;;;;;;;;;;5.30;99.90;;;;;;4752112;30;20396;-85
2021/12/03 20:38:18;;;;;;;;;;;5.50;99.90;;;;;;4769449;30;19932;-90
2021/12/03 20:40:53;;;;;;;;;;;4.70;99.90;;;;;;4754494;30;19983;-83
2021/12/03 21:09:44;;;;;;;;;;;5.30;99.90;;;;;;4753799;30;19955;-86
2021/12/03 21:12:46;;;;;;;;;;;5.30;99.90;;;;;;4735100;30;19969;-88
2021/12/03 21:23:00;;;;;;;;;;;3.90;99.90;;;;;;4716256;30;19927;-87
2021/12/03 21:25:33;;;;;;;;;;;6.10;99.90;;;;;;4701877;30;19949;-84
2021/12/03 21:28:06;;;;;;;;;;;5.60;99.90;;;;;;4716053;30;19926;-88
2021/12/03 21:30:43;;;;;;;;;;;4.40;99.90;;;;;;4763309;29;19932;-87
2021/12/03 21:41:21;;;;;;;;;;;5.20;99.90;;;;;;4806081;29;19925;-89
2021/12/03 21:43:56;;;;;;;;;;;6.20;99.90;;;;;;4772609;30;20276;-86
2021/12/03 21:46:24;;;;;;;;;;;4.80;99.90;;;;;;4757756;30;19926;-89
2021/12/03 21:48:53;;;;;;;;;;;5.50;99.90;;;;;;4788581;30;19921;-87
2021/12/03 21:51:19;;;;;;;;;;;4.90;99.90;;;;;;4757745;30;19976;-92
2021/12/03 21:53:45;;;;;;;;;;;5.20;99.90;;;;;;4803132;29;19925;-87
2021/12/03 21:56:11;;;;;;;;;;;4.90;99.90;;;;;;4790057;29;20382;-88
2021/12/03 21:58:37;;;;;;;;;;;4.60;99.90;;;;;;4790501;29;19932;-91
2021/12/03 22:01:03;;;;;;;;;;;3.80;99.90;;;;;;4789521;29;20438;-89
2021/12/03 22:03:28;;;;;;;;;;;5.10;99.90;;;;;;4774704;29;19931;-88
2021/12/03 22:05:54;;;;;;;;;;;4.90;99.90;;;;;;4775450;29;19947;-88
2021/12/03 22:08:20;;;;;;;;;;;4.80;99.90;;;;;;4806342;29;19929;-88
2021/12/03 22:10:46;;;;;;;;;;;4.80;99.90;;;;;;4789891;29;19932;-86
2021/12/03 22:13:14;;;;;;;;;;;4.90;99.90;;;;;;4789937;29;20024;-89
2021/12/03 22:15:39;;;;;;;;;;;4.80;99.90;;;;;;4790118;29;19936;-87
2021/12/03 22:18:05;;;;;;;;;;;4.80;99.90;;;;;;4789975;29;20023;-85
2021/12/03 22:20:31;;;;;;;;;;;5.40;99.90;;;;;;4774852;29;19925;-89
2021/12/03 22:22:56;;;;;;;;;;;4.90;99.90;;;;;;4790006;29;19932;-88
2021/12/03 22:25:22;;;;;;;;;;;4.50;99.90;;;;;;4789316;29;19925;-87
2021/12/03 22:27:47;;;;;;;;;;;4.70;99.90;;;;;;4789787;29;19991;-91
2021/12/03 22:30:13;;;;;;;;;;;4.70;99.90;;;;;;4790188;29;19932;-87
2021/12/03 22:32:39;;;;;;;;;;;5.80;99.90;;;;;;4790078;29;20384;-89
2021/12/03 22:35:05;;;;;;;;;;;5.60;99.90;;;;;;4789477;29;20276;-90
2021/12/03 22:40:14;;;;;;;;;;;4.70;99.90;;;;;;4847651;24;19935;-87
2021/12/03 22:42:41;;;;;;;;;;;4.70;99.90;;;;;;4842396;29;19924;-92
2021/12/03 22:45:09;;;;;;;;;;;6.00;99.90;;;;;;4842279;29;20302;-87
2021/12/03 22:47:41;;;;;;;;;;;4.80;99.90;;;;;;4807674;29;19931;-89
2021/12/03 22:53:02;;;;;;;;;;;4.80;99.90;;;;;;4779741;29;19936;-87
2021/12/03 22:55:28;;;;;;;;;;;3.80;99.90;;;;;;4770842;30;19938;-85
2021/12/03 22:57:53;;;;;;;;;;;4.80;99.90;;;;;;4754253;30;19929;-89
2021/12/03 23:00:37;;;;;;;;;;;4.60;99.90;;;;;;4769962;30;19980;-91
2021/12/03 23:03:03;;;;;;;;;;;4.70;99.90;;;;;;4785907;30;20062;-90
2021/12/03 23:05:29;;;;;;;;;;;5.00;99.90;;;;;;4786588;29;19925;-89
2021/12/03 23:07:54;;;;;;;;;;;4.20;99.90;;;;;;4765362;30;19981;-86
2021/12/03 23:10:28;;;;;;;;;;;4.70;99.90;;;;;;4771517;30;19926;-88